createdAt,value
2022-08-03T00:01:47.967Z,54.40
2022-08-03T00:16:49.536Z,60.77
2022-08-03T00:31:52.601Z,63.98
2022-08-03T00:47:01.244Z,64.13
2022-08-03T01:02:02.784Z,64.14
2022-08-03T01:17:17.807Z,68.02
2022-08-03T01:32:58.668Z,66.77
2022-08-03T01:47:49.199Z,67.88
2022-08-03T02:02:51.350Z,64.43
2022-08-03T02:17:53.376Z,64.10
2022-08-03T02:32:56.007Z,72.84
2022-08-03T02:48:00.237Z,65.80
2022-08-03T03:03:02.573Z,64.67
2022-08-03T03:18:05.026Z,62.44
2022-08-03T03:33:07.470Z,70.40
2022-08-03T03:48:09.382Z,66.10
2022-08-03T04:03:11.833Z,57.88
2022-08-03T04:18:16.139Z,55.04
2022-08-03T04:33:18.270Z,53.92
2022-08-03T04:48:20.828Z,50.26
2022-08-03T05:03:25.023Z,51.51
2022-08-03T05:18:26.789Z,46.68
2022-08-03T05:33:28.796Z,45.00
2022-08-03T05:48:30.344Z,45.43
2022-08-03T06:03:31.870Z,43.36
2022-08-03T06:18:33.531Z,43.13
2022-08-03T06:34:30.002Z,40.95
2022-08-03T06:48:56.830Z,37.50
2022-08-03T07:03:58.517Z,36.77
2022-08-03T07:19:00.111Z,36.73
2022-08-03T07:34:01.711Z,35.50
2022-08-03T07:49:03.542Z,37.82
2022-08-03T08:04:05.243Z,34.25
2022-08-03T08:19:06.857Z,31.98
2022-08-03T08:34:08.449Z,30.84
2022-08-03T08:49:10.693Z,33.02
2022-08-03T09:04:12.395Z,31.20
2022-08-03T09:19:14.887Z,31.25
2022-08-03T09:34:18.048Z,31.48
2022-08-03T09:49:19.723Z,25.46
2022-08-03T10:04:22.265Z,30.16
2022-08-03T10:19:25.768Z,27.38
2022-08-03T10:34:29.282Z,33.40
2022-08-03T10:49:33.627Z,30.34
2022-08-03T11:04:37.013Z,31.15
2022-08-03T11:19:56.648Z,32.67
2022-08-03T11:35:21.765Z,30.92
2022-08-03T11:50:24.566Z,30.64
2022-08-03T12:05:41.228Z,34.55
2022-08-03T12:20:43.493Z,32.19
2022-08-03T12:35:52.155Z,32.74
2022-08-03T12:51:07.663Z,31.16
2022-08-03T13:06:14.092Z,29.89
2022-08-03T13:21:16.151Z,32.48
2022-08-03T13:36:17.724Z,32.09
2022-08-03T13:51:22.551Z,39.59
2022-08-03T14:06:24.857Z,44.75
2022-08-03T14:21:26.653Z,49.10
2022-08-03T14:36:28.197Z,42.77
2022-08-03T14:51:30.015Z,44.49
2022-08-03T15:06:33.380Z,40.76
2022-08-03T15:21:46.758Z,41.70
2022-08-03T15:36:49.248Z,54.61
2022-08-03T15:51:50.840Z,55.71
2022-08-03T16:06:52.479Z,53.96
2022-08-03T16:21:54.016Z,61.29
2022-08-03T16:36:55.577Z,54.05
2022-08-03T16:51:57.486Z,52.86
2022-08-03T17:07:00.624Z,49.32
2022-08-03T17:22:04.113Z,46.77
2022-08-03T17:37:06.573Z,45.29
2022-08-03T17:52:48.360Z,45.02
2022-08-03T18:23:24.983Z,46.25
2022-08-03T18:38:41.861Z,52.85
2022-08-03T18:54:03.678Z,56.44
2022-08-03T19:09:19.416Z,61.74
2022-08-03T19:24:23.342Z,60.08
2022-08-03T19:39:27.645Z,66.97
2022-08-03T19:54:35.678Z,65.74
2022-08-03T20:09:38.209Z,64.52
2022-08-03T20:24:52.599Z,64.06
2022-08-03T20:39:54.869Z,62.22
2022-08-03T20:54:57.684Z,67.72
2022-08-03T21:10:00.774Z,70.63
2022-08-03T21:13:03.970Z,44.93
2022-08-03T21:25:04.087Z,69.58
2022-08-03T21:40:06.225Z,68.74
2022-08-03T21:55:08.283Z,69.05
2022-08-03T22:16:08.314Z,69.47
2022-08-03T22:31:30.998Z,68.64
2022-08-03T22:46:32.990Z,69.00
2022-08-03T23:01:39.476Z,71.31
2022-08-03T23:16:42.986Z,71.46
2022-08-03T23:31:44.802Z,68.26
2022-08-03T23:46:47.061Z,68.55
